PROFILE

 METAR AND TAF INFORMATION
ADDS - METARS form results

(0554 UTC 19 July 2019)
http://aviationweather.gov/metar/data/
 
ENSG 190520Z 05005KT 9999 2000E -SHRA FEW/// FEW003 BKN040 13/13 Q1008 RMK WIND 3806FT 11014KT

 AIRPORT MAP

 RUNWAY INFORMATION
Runway 06 Runway length 3150 ft Runway width 0 ft
Runway elevation 1619 ft Runway displaced threshold 0 ft Runway heading 0
Runway 24 Runway length 3150 ft Runway width 0 ft
Runway elevation 1634 ft Runway displaced threshold 0 ft Runway heading 0

 AIRPORT FREQUENCIES
Type AFIS Name Sogndal Frequency 119.3 MHZ
Type INFO Name Sogndal In Frequency 121.5 MHZ

 AIRPORT NEAR NAVIGATION AIDS
Type VOR-DME Name Sogndal Frequency 114200 KHZ